Private Wetterstation Sandau
Wetterdaten: Mittwoch, 13.03.2013
Datum Zeit Temp. A. Feuchte A. Luftdruck Regen Wind Richtung Richtung Taupunkt Windchill
13.03.2013 00:01 -5,7 C 76 % 1005,5 hPa 0,0 l/m 0,0 km/h (0 Bft) NO 45 -9,2 C -5,7 C
13.03.2013 00:06 -5,8 C 76 % 1005,7 hPa 0,0 l/m 0,0 km/h (0 Bft) NO 45 -9,3 C -5,8 C
13.03.2013 00:11 -5,9 C 76 % 1005,7 hPa 0,0 l/m 0,0 km/h (0 Bft) NO 45 -9,4 C -5,9 C
13.03.2013 00:16 -6,0 C 76 % 1005,6 hPa 0,0 l/m 0,0 km/h (0 Bft) NO 45 -9,5 C -6,0 C
13.03.2013 00:21 -6,1 C 76 % 1005,7 hPa 0,0 l/m 0,0 km/h (0 Bft) NO 45 -9,6 C -6,1 C
13.03.2013 00:26 -6,2 C 76 % 1005,7 hPa 0,0 l/m 0,0 km/h (0 Bft) NO 45 -9,7 C -6,2 C
13.03.2013 00:31 -6,2 C 76 % 1005,5 hPa 0,0 l/m 0,0 km/h (0 Bft) NO 45 -9,7 C -6,2 C
13.03.2013 00:36 -6,4 C 76 % 1005,7 hPa 0,0 l/m 0,0 km/h (0 Bft) NO 45 -9,9 C -6,4 C
13.03.2013 00:41 -6,4 C 76 % 1005,6 hPa 0,0 l/m 0,0 km/h (0 Bft) NO 45 -9,9 C -6,4 C
13.03.2013 00:46 -6,5 C 76 % 1005,5 hPa 0,0 l/m 0,0 km/h (0 Bft) NO 45 -10,0 C -6,5 C
13.03.2013 00:51 -6,6 C 76 % 1005,5 hPa 0,0 l/m 0,0 km/h (0 Bft) NO 45 -10,1 C -6,6 C
13.03.2013 00:56 -6,7 C 77 % 1005,6 hPa 0,0 l/m 1,8 km/h (1 Bft) N-NO 22 -10,0 C -6,7 C
13.03.2013 01:01 -6,7 C 77 % 1005,4 hPa 0,0 l/m 0,0 km/h (0 Bft) N-NO 22 -10,0 C -6,7 C
13.03.2013 01:06 -6,7 C 77 % 1005,4 hPa 0,0 l/m 0,0 km/h (0 Bft) N-NO 22 -10,0 C -6,7 C
13.03.2013 01:11 -6,9 C 78 % 1005,5 hPa 0,0 l/m 0,0 km/h (0 Bft) N-NO 22 -10,1 C -6,9 C
13.03.2013 01:16 -6,9 C 78 % 1005,4 hPa 0,0 l/m 0,0 km/h (0 Bft) N-NO 22 -10,1 C -6,9 C
13.03.2013 01:21 -7,0 C 78 % 1005,5 hPa 0,0 l/m 0,0 km/h (0 Bft) N-NO 22 -10,2 C -7,0 C
13.03.2013 01:26 -7,1 C 78 % 1005,6 hPa 0,0 l/m 0,0 km/h (0 Bft) N-NO 22 -10,3 C -7,1 C
13.03.2013 01:31 -7,1 C 78 % 1005,4 hPa 0,0 l/m 0,0 km/h (0 Bft) N-NO 22 -10,3 C -7,1 C
13.03.2013 01:36 -7,2 C 78 % 1005,3 hPa 0,0 l/m 0,0 km/h (0 Bft) N-NO 22 -10,4 C -7,2 C
13.03.2013 01:41 -7,3 C 78 % 1005,5 hPa 0,0 l/m 0,0 km/h (0 Bft) N-NO 22 -10,5 C -7,3 C
13.03.2013 01:46 -7,3 C 78 % 1005,3 hPa 0,0 l/m 0,0 km/h (0 Bft) N-NO 22 -10,5 C -7,3 C
13.03.2013 01:51 -7,4 C 78 % 1005,4 hPa 0,0 l/m 0,0 km/h (0 Bft) N-NO 22 -10,6 C -7,4 C
13.03.2013 01:56 -7,5 C 78 % 1005,2 hPa 0,0 l/m 0,0 km/h (0 Bft) N-NO 22 -10,7 C -7,5 C
13.03.2013 02:01 -7,6 C 79 % 1005,3 hPa 0,0 l/m 0,0 km/h (0 Bft) N-NO 22 -10,6 C -7,6 C
13.03.2013 02:06 -7,6 C 79 % 1005,2 hPa 0,0 l/m 0,0 km/h (0 Bft) N-NO 22 -10,6 C -7,6 C
13.03.2013 02:11 -7,7 C 79 % 1005,2 hPa 0,0 l/m 0,0 km/h (0 Bft) N-NO 22 -10,7 C -7,7 C
13.03.2013 02:16 -7,8 C 79 % 1005,2 hPa 0,0 l/m 0,0 km/h (0 Bft) N-NO 22 -10,8 C -7,8 C
13.03.2013 02:21 -7,9 C 79 % 1005,3 hPa 0,0 l/m 0,0 km/h (0 Bft) N-NO 22 -10,9 C -7,9 C
13.03.2013 02:26 -7,9 C 80 % 1005,2 hPa 0,0 l/m 1,8 km/h (1 Bft) N-NO 22 -10,7 C -7,9 C
13.03.2013 02:31 -8,0 C 80 % 1005,3 hPa 0,0 l/m 0,0 km/h (0 Bft) N-NO 22 -10,8 C -8,0 C
13.03.2013 02:36 -8,1 C 80 % 1005,3 hPa 0,0 l/m 0,0 km/h (0 Bft) N-NO 22 -10,9 C -8,1 C
13.03.2013 02:41 -8,1 C 80 % 1005,3 hPa 0,0 l/m 0,0 km/h (0 Bft) N-NO 22 -10,9 C -8,1 C
13.03.2013 02:46 -8,1 C 80 % 1005,4 hPa 0,0 l/m 0,0 km/h (0 Bft) N-NO 22 -10,9 C -8,1 C
13.03.2013 02:51 -8,2 C 80 % 1005,3 hPa 0,0 l/m 0,0 km/h (0 Bft) N-NO 22 -11,0 C -8,2 C
13.03.2013 02:56 -8,2 C 81 % 1005,3 hPa 0,0 l/m 0,0 km/h (0 Bft) N-NO 22 -10,9 C -8,2 C
13.03.2013 03:01 -8,2 C 81 % 1005,3 hPa 0,0 l/m 1,4 km/h (1 Bft) N-NO 22 -10,9 C -8,2 C
13.03.2013 03:06 -8,4 C 81 % 1005,2 hPa 0,0 l/m 2,2 km/h (1 Bft) N-NO 22 -11,1 C -8,4 C
13.03.2013 03:11 -8,4 C 81 % 1005,4 hPa 0,0 l/m 2,2 km/h (1 Bft) N-NO 22 -11,1 C -8,4 C
13.03.2013 03:16 -8,4 C 82 % 1005,1 hPa 0,0 l/m 5,4 km/h (1 Bft) N-NO 22 -10,9 C -11,4 C
13.03.2013 03:21 -8,4 C 83 % 1005,2 hPa 0,0 l/m 0,0 km/h (0 Bft) N-NO 22 -10,8 C -8,4 C
13.03.2013 03:26 -8,4 C 83 % 1005,2 hPa 0,0 l/m 2,5 km/h (1 Bft) N-NO 22 -10,8 C -8,4 C
13.03.2013 03:31 -8,5 C 82 % 1005,3 hPa 0,0 l/m 0,0 km/h (0 Bft) N 360 -11,0 C -8,5 C
13.03.2013 03:36 -8,5 C 82 % 1005,3 hPa 0,0 l/m 1,8 km/h (1 Bft) N 360 -11,0 C -8,5 C
13.03.2013 03:41 -8,5 C 82 % 1005,4 hPa 0,0 l/m 2,2 km/h (1 Bft) N-NO 22 -11,0 C -8,5 C
13.03.2013 03:46 -8,6 C 82 % 1005,3 hPa 0,0 l/m 1,4 km/h (1 Bft) N 360 -11,1 C -8,6 C
13.03.2013 03:51 -8,5 C 82 % 1005,2 hPa 0,0 l/m 1,4 km/h (1 Bft) N-NO 22 -11,0 C -8,5 C
13.03.2013 03:56 -8,6 C 82 % 1005,2 hPa 0,0 l/m 0,0 km/h (0 Bft) N-NO 22 -11,1 C -8,6 C
13.03.2013 04:01 -8,6 C 82 % 1005,2 hPa 0,0 l/m 0,0 km/h (0 Bft) N 360 -11,1 C -8,6 C
13.03.2013 04:06 -8,6 C 82 % 1005,2 hPa 0,0 l/m 0,0 km/h (0 Bft) N 360 -11,1 C -8,6 C
13.03.2013 04:11 -8,7 C 82 % 1005,3 hPa 0,0 l/m 0,0 km/h (0 Bft) N 360 -11,2 C -8,7 C
13.03.2013 04:16 -8,7 C 82 % 1005,4 hPa 0,0 l/m 0,0 km/h (0 Bft) N 360 -11,2 C -8,7 C
13.03.2013 04:21 -8,8 C 82 % 1005,2 hPa 0,0 l/m 0,0 km/h (0 Bft) N 360 -11,3 C -8,8 C
13.03.2013 04:26 -8,9 C 82 % 1005,2 hPa 0,0 l/m 0,0 km/h (0 Bft) N 360 -11,4 C -8,9 C
13.03.2013 04:31 -8,9 C 82 % 1005,2 hPa 0,0 l/m 0,0 km/h (0 Bft) N 360 -11,4 C -8,9 C
13.03.2013 04:36 -8,9 C 82 % 1005,3 hPa 0,0 l/m 0,0 km/h (0 Bft) N 360 -11,4 C -8,9 C
13.03.2013 04:41 -9,0 C 82 % 1005,2 hPa 0,0 l/m 0,0 km/h (0 Bft) N 360 -11,5 C -9,0 C
13.03.2013 04:46 -9,1 C 82 % 1005,2 hPa 0,0 l/m 0,0 km/h (0 Bft) N 360 -11,6 C -9,1 C
13.03.2013 04:51 -9,1 C 82 % 1005,1 hPa 0,0 l/m 0,0 km/h (0 Bft) N 360 -11,6 C -9,1 C
13.03.2013 04:56 -9,2 C 82 % 1005,0 hPa 0,0 l/m 0,0 km/h (0 Bft) N 360 -11,7 C -9,2 C
13.03.2013 05:01 -9,2 C 82 % 1005,1 hPa 0,0 l/m 0,0 km/h (0 Bft) N 360 -11,7 C -9,2 C
13.03.2013 05:06 -9,3 C 82 % 1005,1 hPa 0,0 l/m 0,0 km/h (0 Bft) N 360 -11,8 C -9,3 C
13.03.2013 05:11 -9,4 C 82 % 1005,1 hPa 0,0 l/m 0,0 km/h (0 Bft) N 360 -11,9 C -9,4 C
13.03.2013 05:16 -9,5 C 82 % 1005,0 hPa 0,0 l/m 0,0 km/h (0 Bft) N 360 -12,0 C -9,5 C
13.03.2013 05:21 -9,6 C 82 % 1005,1 hPa 0,0 l/m 0,0 km/h (0 Bft) N 360 -12,1 C -9,6 C
13.03.2013 05:26 -9,6 C 82 % 1005,2 hPa 0,0 l/m 0,0 km/h (0 Bft) N 360 -12,1 C -9,6 C
13.03.2013 05:31 -9,6 C 82 % 1005,2 hPa 0,0 l/m 0,0 km/h (0 Bft) N 360 -12,1 C -9,6 C
13.03.2013 05:36 -9,6 C 82 % 1005,2 hPa 0,0 l/m 0,0 km/h (0 Bft) N 360 -12,1 C -9,6 C
13.03.2013 05:41 -9,7 C 82 % 1005,2 hPa 0,0 l/m 0,0 km/h (0 Bft) N 360 -12,2 C -9,7 C
13.03.2013 05:46 -9,7 C 82 % 1005,1 hPa 0,0 l/m 0,0 km/h (0 Bft) N 360 -12,2 C -9,7 C
13.03.2013 05:51 -9,7 C 82 % 1005,2 hPa 0,0 l/m 0,0 km/h (0 Bft) N 360 -12,2 C -9,7 C
13.03.2013 05:56 -9,8 C 82 % 1005,0 hPa 0,0 l/m 0,0 km/h (0 Bft) N 360 -12,3 C -9,8 C
13.03.2013 06:01 -9,8 C 83 % 1005,1 hPa 0,0 l/m 0,0 km/h (0 Bft) N 360 -12,1 C -9,8 C
13.03.2013 06:06 -9,8 C 82 % 1005,2 hPa 0,0 l/m 0,0 km/h (0 Bft) N 360 -12,3 C -9,8 C
13.03.2013 06:11 -9,8 C 83 % 1005,1 hPa 0,0 l/m 0,0 km/h (0 Bft) N 360 -12,1 C -9,8 C
13.03.2013 06:16 -9,9 C 83 % 1005,1 hPa 0,0 l/m 0,0 km/h (0 Bft) N 360 -12,2 C -9,9 C
13.03.2013 06:21 -9,9 C 83 % 1005,2 hPa 0,0 l/m 0,0 km/h (0 Bft) N 360 -12,2 C -9,9 C
13.03.2013 06:26 -9,9 C 83 % 1005,2 hPa 0,0 l/m 0,0 km/h (0 Bft) N 360 -12,2 C -9,9 C
13.03.2013 06:31 -9,9 C 83 % 1005,3 hPa 0,0 l/m 0,0 km/h (0 Bft) N 360 -12,2 C -9,9 C
13.03.2013 06:36 -9,9 C 83 % 1005,2 hPa 0,0 l/m 0,0 km/h (0 Bft) N 360 -12,2 C -9,9 C
13.03.2013 06:41 -9,9 C 83 % 1005,3 hPa 0,0 l/m 0,0 km/h (0 Bft) N 360 -12,2 C -9,9 C
13.03.2013 06:46 -9,8 C 83 % 1005,2 hPa 0,0 l/m 0,0 km/h (0 Bft) N 360 -12,1 C -9,8 C
13.03.2013 06:51 -9,7 C 84 % 1005,5 hPa 0,0 l/m 0,0 km/h (0 Bft) N 360 -11,9 C -9,7 C
13.03.2013 06:56 -9,6 C 84 % 1005,5 hPa 0,0 l/m 0,0 km/h (0 Bft) N 360 -11,8 C -9,6 C
13.03.2013 07:01 -9,4 C 84 % 1005,5 hPa 0,0 l/m 0,0 km/h (0 Bft) N 360 -11,6 C -9,4 C
13.03.2013 07:06 -9,2 C 85 % 1005,4 hPa 0,0 l/m 0,0 km/h (0 Bft) N 360 -11,2 C -9,2 C
13.03.2013 07:11 -9,1 C 85 % 1005,6 hPa 0,0 l/m 0,0 km/h (0 Bft) N 360 -11,1 C -9,1 C
13.03.2013 07:16 -9,1 C 85 % 1005,5 hPa 0,0 l/m 0,0 km/h (0 Bft) N 360 -11,1 C -9,1 C
13.03.2013 07:21 -9,0 C 85 % 1005,6 hPa 0,0 l/m 0,0 km/h (0 Bft) N 360 -11,0 C -9,0 C
13.03.2013 07:26 -8,9 C 86 % 1005,5 hPa 0,0 l/m 0,0 km/h (0 Bft) N 360 -10,8 C -8,9 C
13.03.2013 07:31 -8,9 C 86 % 1005,6 hPa 0,0 l/m 0,0 km/h (0 Bft) N 360 -10,8 C -8,9 C
13.03.2013 07:36 -8,8 C 86 % 1005,6 hPa 0,0 l/m 0,0 km/h (0 Bft) N 360 -10,7 C -8,8 C
13.03.2013 07:41 -8,6 C 86 % 1005,5 hPa 0,0 l/m 0,0 km/h (0 Bft) N 360 -10,5 C -8,6 C
13.03.2013 07:46 -8,6 C 86 % 1005,6 hPa 0,0 l/m 0,0 km/h (0 Bft) N-NW 337 -10,5 C -8,6 C
13.03.2013 07:51 -8,4 C 86 % 1005,5 hPa 0,0 l/m 0,0 km/h (0 Bft) N 360 -10,3 C -8,4 C
13.03.2013 07:56 -8,4 C 86 % 1005,6 hPa 0,0 l/m 0,0 km/h (0 Bft) N-NW 337 -10,3 C -8,4 C
13.03.2013 08:01 -8,2 C 86 % 1005,4 hPa 0,0 l/m 0,0 km/h (0 Bft) N-NW 337 -10,1 C -8,2 C
13.03.2013 08:06 -7,9 C 86 % 1005,7 hPa 0,0 l/m 0,0 km/h (0 Bft) N-NW 337 -9,8 C -7,9 C
13.03.2013 08:11 -7,7 C 86 % 1005,6 hPa 0,0 l/m 0,0 km/h (0 Bft) N-NW 337 -9,6 C -7,7 C
13.03.2013 08:16 -7,6 C 87 % 1005,8 hPa 0,0 l/m 0,0 km/h (0 Bft) N-NW 337 -9,4 C -7,6 C
13.03.2013 08:21 -7,4 C 87 % 1005,7 hPa 0,0 l/m 1,1 km/h (1 Bft) N-NW 337 -9,2 C -7,4 C
13.03.2013 08:26 -7,2 C 87 % 1005,8 hPa 0,0 l/m 0,0 km/h (0 Bft) N-NW 337 -9,0 C -7,2 C
13.03.2013 08:31 -6,9 C 86 % 1005,8 hPa 0,0 l/m 0,0 km/h (0 Bft) NW 315 -8,8 C -6,9 C
13.03.2013 08:36 -6,7 C 86 % 1005,8 hPa 0,0 l/m 0,0 km/h (0 Bft) NW 315 -8,6 C -6,7 C
13.03.2013 08:41 -6,5 C 86 % 1005,8 hPa 0,0 l/m 0,0 km/h (0 Bft) NW 315 -8,4 C -6,5 C
13.03.2013 08:46 -6,2 C 86 % 1005,8 hPa 0,0 l/m 0,0 km/h (0 Bft) NW 315 -8,1 C -6,2 C
13.03.2013 08:51 -6,1 C 85 % 1005,9 hPa 0,0 l/m 0,0 km/h (0 Bft) NW 315 -8,2 C -6,1 C
13.03.2013 08:56 -5,8 C 85 % 1005,8 hPa 0,0 l/m 1,1 km/h (1 Bft) NW 315 -7,9 C -5,8 C
13.03.2013 09:01 -5,7 C 84 % 1006,0 hPa 0,0 l/m 1,8 km/h (1 Bft) N-NW 337 -8,0 C -5,7 C
13.03.2013 09:06 -5,6 C 84 % 1006,0 hPa 0,0 l/m 0,0 km/h (0 Bft) NW 315 -7,9 C -5,6 C
13.03.2013 09:11 -5,5 C 83 % 1005,9 hPa 0,0 l/m 3,6 km/h (1 Bft) W-NW 292 -7,9 C -5,5 C
13.03.2013 09:16 -5,4 C 83 % 1005,9 hPa 0,0 l/m 0,0 km/h (0 Bft) W-NW 292 -7,8 C -5,4 C
13.03.2013 09:21 -5,3 C 82 % 1005,9 hPa 0,0 l/m 2,2 km/h (1 Bft) NW 315 -7,9 C -5,3 C
13.03.2013 09:26 -5,1 C 82 % 1005,9 hPa 0,0 l/m 0,0 km/h (0 Bft) NW 315 -7,7 C -5,1 C
13.03.2013 09:31 -4,9 C 81 % 1005,9 hPa 0,0 l/m 1,4 km/h (1 Bft) NW 315 -7,6 C -4,9 C
13.03.2013 09:36 -4,7 C 81 % 1005,8 hPa 0,0 l/m 0,0 km/h (0 Bft) NW 315 -7,4 C -4,7 C
13.03.2013 09:41 -4,4 C 80 % 1005,8 hPa 0,0 l/m 0,0 km/h (0 Bft) W-NW 292 -7,3 C -4,4 C
13.03.2013 09:46 -4,2 C 80 % 1005,8 hPa 0,0 l/m 2,9 km/h (1 Bft) W-NW 292 -7,1 C -4,2 C
13.03.2013 09:51 -4,1 C 79 % 1006,0 hPa 0,0 l/m 1,1 km/h (1 Bft) W-NW 292 -7,2 C -4,1 C
13.03.2013 09:56 -3,8 C 79 % 1006,0 hPa 0,0 l/m 0,0 km/h (0 Bft) W-NW 292 -6,9 C -3,8 C
13.03.2013 10:01 -3,6 C 78 % 1006,1 hPa 0,0 l/m 2,5 km/h (1 Bft) NW 315 -6,9 C -3,6 C
13.03.2013 10:06 -3,5 C 78 % 1006,2 hPa 0,0 l/m 1,8 km/h (1 Bft) W-NW 292 -6,8 C -3,5 C
13.03.2013 10:11 -3,5 C 77 % 1006,0 hPa 0,0 l/m 3,2 km/h (1 Bft) W-SW 247 -6,9 C -3,5 C
13.03.2013 10:16 -3,4 C 77 % 1006,1 hPa 0,0 l/m 0,0 km/h (0 Bft) W-NW 292 -6,8 C -3,4 C
13.03.2013 10:21 -3,2 C 77 % 1006,1 hPa 0,0 l/m 0,0 km/h (0 Bft) NW 315 -6,6 C -3,2 C
13.03.2013 10:26 -3,0 C 76 % 1006,2 hPa 0,0 l/m 3,6 km/h (1 Bft) W-NW 292 -6,6 C -3,0 C
13.03.2013 10:31 -2,8 C 76 % 1006,2 hPa 0,0 l/m 3,6 km/h (1 Bft) NW 315 -6,4 C -2,8 C
13.03.2013 10:36 -2,7 C 75 % 1006,3 hPa 0,0 l/m 0,0 km/h (0 Bft) W-NW 292 -6,5 C -2,7 C
13.03.2013 10:41 -2,4 C 75 % 1006,3 hPa 0,0 l/m 1,8 km/h (1 Bft) W 270 -6,2 C -2,4 C
13.03.2013 10:46 -2,2 C 74 % 1006,2 hPa 0,0 l/m 2,9 km/h (1 Bft) W-NW 292 -6,2 C -2,2 C
13.03.2013 10:51 -2,1 C 74 % 1006,2 hPa 0,0 l/m 2,5 km/h (1 Bft) W-NW 292 -6,1 C -2,1 C
13.03.2013 10:56 -2,1 C 73 % 1006,3 hPa 0,0 l/m 0,0 km/h (0 Bft) NW 315 -6,3 C -2,1 C
13.03.2013 11:01 -1,9 C 72 % 1006,3 hPa 0,0 l/m 1,4 km/h (1 Bft) W 270 -6,3 C -1,9 C
13.03.2013 11:06 -1,9 C 72 % 1006,3 hPa 0,0 l/m 3,2 km/h (1 Bft) NW 315 -6,3 C -1,9 C
13.03.2013 11:11 -1,7 C 72 % 1006,4 hPa 0,0 l/m 0,0 km/h (0 Bft) NW 315 -6,1 C -1,7 C
13.03.2013 11:16 -1,6 C 72 % 1006,3 hPa 0,0 l/m 3,2 km/h (1 Bft) W-NW 292 -6,0 C -1,6 C
13.03.2013 11:21 -1,4 C 71 % 1006,3 hPa 0,0 l/m 0,0 km/h (0 Bft) W-NW 292 -6,0 C -1,4 C
13.03.2013 11:26 -1,3 C 70 % 1006,2 hPa 0,0 l/m 2,5 km/h (1 Bft) W-NW 292 -6,0 C -1,3 C
13.03.2013 11:31 -1,1 C 69 % 1006,2 hPa 0,0 l/m 2,5 km/h (1 Bft) W 270 -6,0 C -1,1 C
13.03.2013 11:36 -0,9 C 69 % 1006,3 hPa 0,0 l/m 2,9 km/h (1 Bft) N-NW 337 -5,9 C -0,9 C
13.03.2013 11:41 -0,8 C 67 % 1006,2 hPa 0,0 l/m 2,2 km/h (1 Bft) W-NW 292 -6,1 C -0,8 C
13.03.2013 11:46 -0,7 C 66 % 1006,4 hPa 0,0 l/m 3,6 km/h (1 Bft) W-SW 247 -6,2 C -0,7 C
13.03.2013 11:51 -0,7 C 66 % 1006,3 hPa 0,0 l/m 2,9 km/h (1 Bft) W 270 -6,2 C -0,7 C
13.03.2013 11:56 -0,6 C 65 % 1006,3 hPa 0,0 l/m 5,8 km/h (2 Bft) W-SW 247 -6,3 C -2,6 C
13.03.2013 12:01 -0,3 C 65 % 1006,3 hPa 0,0 l/m 4,7 km/h (1 Bft) W 270 -6,1 C -1,8 C
13.03.2013 12:06 -0,1 C 65 % 1006,3 hPa 0,0 l/m 2,2 km/h (1 Bft) W-SW 247 -5,9 C -0,1 C
13.03.2013 12:11 0,1 C 63 % 1006,3 hPa 0,0 l/m 7,2 km/h (2 Bft) W-SW 247 -6,1 C -2,4 C
13.03.2013 12:16 0,2 C 62 % 1006,4 hPa 0,0 l/m 0,0 km/h (0 Bft) W 270 -6,2 C 0,2 C
13.03.2013 12:21 0,2 C 62 % 1006,2 hPa 0,0 l/m 8,6 km/h (2 Bft) W-SW 247 -6,2 C -2,7 C
13.03.2013 12:26 0,3 C 61 % 1006,2 hPa 0,0 l/m 4,7 km/h (1 Bft) W 270 -6,3 C -1,1 C
13.03.2013 12:31 0,4 C 61 % 1006,2 hPa 0,0 l/m 1,1 km/h (1 Bft) N-NW 337 -6,2 C 0,4 C
13.03.2013 12:36 0,4 C 61 % 1006,3 hPa 0,0 l/m 4,0 km/h (1 Bft) W 270 -6,2 C 0,4 C
13.03.2013 12:41 0,6 C 60 % 1006,2 hPa 0,0 l/m 5,8 km/h (2 Bft) W-SW 247 -6,3 C -1,3 C
13.03.2013 12:46 0,7 C 60 % 1006,1 hPa 0,0 l/m 2,9 km/h (1 Bft) W-NW 292 -6,2 C 0,7 C
13.03.2013 12:51 0,8 C 59 % 1006,3 hPa 0,0 l/m 5,8 km/h (2 Bft) W-SW 247 -6,3 C -1,0 C
13.03.2013 12:56 0,9 C 59 % 1006,3 hPa 0,0 l/m 3,6 km/h (1 Bft) W 270 -6,2 C 0,9 C
13.03.2013 13:01 1,1 C 58 % 1006,2 hPa 0,0 l/m 5,4 km/h (1 Bft) N-NW 337 -6,2 C -0,5 C
13.03.2013 13:06 1,3 C 58 % 1006,2 hPa 0,0 l/m 4,0 km/h (1 Bft) W 270 -6,0 C 1,3 C
13.03.2013 13:11 1,4 C 56 % 1006,3 hPa 0,0 l/m 4,0 km/h (1 Bft) W-SW 247 -6,4 C 1,4 C
13.03.2013 13:16 1,6 C 56 % 1006,3 hPa 0,0 l/m 5,0 km/h (1 Bft) W-SW 247 -6,2 C 0,2 C
13.03.2013 13:21 1,6 C 56 % 1006,3 hPa 0,0 l/m 0,0 km/h (0 Bft) W-NW 292 -6,2 C 1,6 C
13.03.2013 13:26 1,9 C 56 % 1006,2 hPa 0,0 l/m 4,0 km/h (1 Bft) W-NW 292 -5,9 C 1,9 C
13.03.2013 13:31 2,1 C 56 % 1006,4 hPa 0,0 l/m 1,8 km/h (1 Bft) W 270 -5,7 C 2,1 C
13.03.2013 13:36 2,3 C 55 % 1006,3 hPa 0,0 l/m 6,1 km/h (2 Bft) W-SW 247 -5,8 C 0,6 C
13.03.2013 13:41 2,5 C 55 % 1006,4 hPa 0,0 l/m 0,0 km/h (0 Bft) W-NW 292 -5,6 C 2,5 C
13.03.2013 13:46 2,8 C 53 % 1006,2 hPa 0,0 l/m 2,9 km/h (1 Bft) W-NW 292 -5,8 C 2,8 C
13.03.2013 13:51 2,8 C 52 % 1006,0 hPa 0,0 l/m 4,0 km/h (1 Bft) SW 225 -6,1 C 2,8 C
13.03.2013 13:56 2,9 C 52 % 1006,1 hPa 0,0 l/m 2,9 km/h (1 Bft) SW 225 -6,0 C 2,9 C
13.03.2013 14:01 2,9 C 52 % 1006,1 hPa 0,0 l/m 2,5 km/h (1 Bft) W-NW 292 -6,0 C 2,9 C
13.03.2013 14:06 2,9 C 51 % 1006,2 hPa 0,0 l/m 0,0 km/h (0 Bft) W 270 -6,2 C 2,9 C
13.03.2013 14:11 2,9 C 52 % 1006,2 hPa 0,0 l/m 2,9 km/h (1 Bft) W-NW 292 -6,0 C 2,9 C
13.03.2013 14:16 2,9 C 52 % 1006,2 hPa 0,0 l/m 2,5 km/h (1 Bft) NW 315 -6,0 C 2,9 C
13.03.2013 14:21 2,9 C 52 % 1006,2 hPa 0,0 l/m 6,5 km/h (2 Bft) W-NW 292 -6,0 C 1,1 C
13.03.2013 14:26 3,0 C 52 % 1006,2 hPa 0,0 l/m 3,2 km/h (1 Bft) W-NW 292 -5,9 C 3,0 C
13.03.2013 14:31 3,1 C 52 % 1006,2 hPa 0,0 l/m 5,0 km/h (1 Bft) N-NW 337 -5,8 C 1,9 C
13.03.2013 14:36 3,1 C 51 % 1006,3 hPa 0,0 l/m 0,0 km/h (0 Bft) NW 315 -6,0 C 3,1 C
13.03.2013 14:41 3,1 C 51 % 1006,2 hPa 0,0 l/m 3,2 km/h (1 Bft) NW 315 -6,0 C 3,1 C
13.03.2013 14:46 3,3 C 51 % 1006,2 hPa 0,0 l/m 1,8 km/h (1 Bft) W-NW 292 -5,8 C 3,3 C
13.03.2013 14:51 3,4 C 50 % 1006,3 hPa 0,0 l/m 0,0 km/h (0 Bft) W 270 -6,0 C 3,4 C
13.03.2013 14:56 3,4 C 49 % 1006,1 hPa 0,0 l/m 4,7 km/h (1 Bft) NW 315 -6,3 C 2,4 C
13.03.2013 15:01 3,4 C 50 % 1006,3 hPa 0,0 l/m 2,5 km/h (1 Bft) W-SW 247 -6,0 C 3,4 C
13.03.2013 15:06 3,3 C 49 % 1006,1 hPa 0,0 l/m 5,8 km/h (2 Bft) W-SW 247 -6,4 C 1,8 C
13.03.2013 15:11 3,2 C 49 % 1005,9 hPa 0,0 l/m 2,5 km/h (1 Bft) NW 315 -6,5 C 3,2 C
13.03.2013 15:16 3,3 C 49 % 1006,1 hPa 0,0 l/m 1,8 km/h (1 Bft) W 270 -6,4 C 3,3 C
13.03.2013 15:21 3,2 C 49 % 1006,1 hPa 0,0 l/m 4,7 km/h (1 Bft) W-NW 292 -6,5 C 2,2 C
13.03.2013 15:26 3,2 C 49 % 1006,2 hPa 0,0 l/m 1,1 km/h (1 Bft) W-NW 292 -6,5 C 3,2 C
13.03.2013 15:31 3,3 C 49 % 1006,0 hPa 0,0 l/m 5,0 km/h (1 Bft) SW 225 -6,4 C 2,2 C
13.03.2013 15:36 3,2 C 49 % 1006,2 hPa 0,0 l/m 3,6 km/h (1 Bft) W-SW 247 -6,5 C 3,2 C
13.03.2013 15:41 3,1 C 49 % 1006,1 hPa 0,0 l/m 3,6 km/h (1 Bft) W 270 -6,6 C 3,1 C
13.03.2013 15:46 3,1 C 49 % 1006,1 hPa 0,0 l/m 6,5 km/h (2 Bft) W-SW 247 -6,6 C 1,4 C
13.03.2013 15:51 3,1 C 49 % 1006,0 hPa 0,0 l/m 4,3 km/h (1 Bft) S-SO 157 -6,6 C 3,1 C
13.03.2013 15:56 3,1 C 49 % 1006,2 hPa 0,0 l/m 2,5 km/h (1 Bft) S-SO 157 -6,6 C 3,1 C
13.03.2013 16:01 3,1 C 49 % 1006,2 hPa 0,0 l/m 1,8 km/h (1 Bft) W 270 -6,6 C 3,1 C
13.03.2013 16:06 3,1 C 48 % 1006,1 hPa 0,0 l/m 6,1 km/h (2 Bft) W-SW 247 -6,8 C 1,5 C
13.03.2013 16:11 2,9 C 49 % 1006,2 hPa 0,0 l/m 1,8 km/h (1 Bft) W 270 -6,7 C 2,9 C
13.03.2013 16:16 2,9 C 48 % 1006,2 hPa 0,0 l/m 3,2 km/h (1 Bft) SW 225 -7,0 C 2,9 C
13.03.2013 16:21 2,6 C 48 % 1006,2 hPa 0,0 l/m 3,2 km/h (1 Bft) SW 225 -7,3 C 2,6 C
13.03.2013 16:26 2,4 C 49 % 1006,1 hPa 0,0 l/m 4,0 km/h (1 Bft) W-SW 247 -7,2 C 2,4 C
13.03.2013 16:31 2,2 C 49 % 1006,2 hPa 0,0 l/m 3,2 km/h (1 Bft) W 270 -7,4 C 2,2 C
13.03.2013 16:36 1,9 C 49 % 1006,3 hPa 0,0 l/m 0,0 km/h (0 Bft) W 270 -7,7 C 1,9 C
13.03.2013 16:41 1,8 C 49 % 1006,3 hPa 0,0 l/m 4,7 km/h (1 Bft) W-SW 247 -7,8 C 0,6 C
13.03.2013 16:46 1,3 C 49 % 1006,2 hPa 0,0 l/m 2,5 km/h (1 Bft) W-SW 247 -8,2 C 1,3 C
13.03.2013 16:51 1,1 C 50 % 1006,2 hPa 0,0 l/m 1,1 km/h (1 Bft) W 270 -8,1 C 1,1 C
13.03.2013 16:56 0,9 C 51 % 1006,2 hPa 0,0 l/m 0,0 km/h (0 Bft) W-NW 292 -8,1 C 0,9 C
13.03.2013 17:01 0,7 C 51 % 1006,2 hPa 0,0 l/m 3,2 km/h (1 Bft) W 270 -8,3 C 0,7 C
13.03.2013 17:06 0,5 C 52 % 1006,3 hPa 0,0 l/m 0,0 km/h (0 Bft) W-NW 292 -8,2 C 0,5 C
13.03.2013 17:11 0,3 C 52 % 1006,4 hPa 0,0 l/m 0,0 km/h (0 Bft) W-SW 247 -8,4 C 0,3 C
13.03.2013 17:16 0,3 C 52 % 1006,4 hPa 0,0 l/m 2,2 km/h (1 Bft) W-SW 247 -8,4 C 0,3 C
13.03.2013 17:21 0,1 C 53 % 1006,4 hPa 0,0 l/m 3,2 km/h (1 Bft) W-SW 247 -8,3 C 0,1 C
13.03.2013 17:26 -0,1 C 52 % 1006,4 hPa 0,0 l/m 0,0 km/h (0 Bft) W-SW 247 -8,7 C -0,1 C
13.03.2013 17:31 -0,2 C 52 % 1006,4 hPa 0,0 l/m 2,9 km/h (1 Bft) W-SW 247 -8,8 C -0,2 C
13.03.2013 17:36 -0,4 C 52 % 1006,5 hPa 0,0 l/m 1,8 km/h (1 Bft) W 270 -9,0 C -0,4 C
13.03.2013 17:41 -0,6 C 53 % 1006,4 hPa 0,0 l/m 0,0 km/h (0 Bft) W 270 -9,0 C -0,6 C
13.03.2013 17:46 -0,7 C 53 % 1006,5 hPa 0,0 l/m 1,1 km/h (1 Bft) W-SW 247 -9,1 C -0,7 C
13.03.2013 17:51 -0,8 C 54 % 1006,7 hPa 0,0 l/m 0,0 km/h (0 Bft) S-SW 202 -8,9 C -0,8 C
13.03.2013 17:56 -1,0 C 54 % 1006,7 hPa 0,0 l/m 0,0 km/h (0 Bft) S-SW 202 -9,1 C -1,0 C
13.03.2013 18:01 -1,1 C 55 % 1006,7 hPa 0,0 l/m 0,0 km/h (0 Bft) S-SW 202 -9,0 C -1,1 C
13.03.2013 18:06 -1,4 C 56 % 1006,8 hPa 0,0 l/m 0,0 km/h (0 Bft) S 180 -9,0 C -1,4 C
13.03.2013 18:11 -1,6 C 56 % 1006,8 hPa 0,0 l/m 0,0 km/h (0 Bft) S 180 -9,2 C -1,6 C
13.03.2013 18:16 -1,8 C 56 % 1006,9 hPa 0,0 l/m 1,1 km/h (1 Bft) S 180 -9,4 C -1,8 C
13.03.2013 18:21 -2,1 C 57 % 1007,0 hPa 0,0 l/m 1,8 km/h (1 Bft) S-SO 157 -9,4 C -2,1 C
13.03.2013 18:26 -2,4 C 57 % 1006,9 hPa 0,0 l/m 0,0 km/h (0 Bft) S-SO 157 -9,7 C -2,4 C
13.03.2013 18:31 -2,6 C 58 % 1007,0 hPa 0,0 l/m 0,0 km/h (0 Bft) S 180 -9,7 C -2,6 C
13.03.2013 18:36 -2,8 C 58 % 1007,1 hPa 0,0 l/m 0,0 km/h (0 Bft) S 180 -9,9 C -2,8 C
13.03.2013 18:41 -3,1 C 58 % 1007,0 hPa 0,0 l/m 0,0 km/h (0 Bft) S-SO 157 -10,2 C -3,1 C
13.03.2013 18:46 -3,2 C 59 % 1007,1 hPa 0,0 l/m 0,0 km/h (0 Bft) S-SO 157 -10,0 C -3,2 C
13.03.2013 18:51 -3,4 C 59 % 1007,3 hPa 0,0 l/m 0,0 km/h (0 Bft) S-SO 157 -10,2 C -3,4 C
13.03.2013 18:56 -3,6 C 60 % 1007,3 hPa 0,0 l/m 0,0 km/h (0 Bft) S-SO 157 -10,2 C -3,6 C
13.03.2013 19:01 -3,7 C 60 % 1007,4 hPa 0,0 l/m 1,4 km/h (1 Bft) S-SO 157 -10,3 C -3,7 C
13.03.2013 19:06 -3,8 C 61 % 1007,3 hPa 0,0 l/m 0,0 km/h (0 Bft) S-SO 157 -10,2 C -3,8 C
13.03.2013 19:11 -3,9 C 61 % 1007,4 hPa 0,0 l/m 0,0 km/h (0 Bft) S-SO 157 -10,3 C -3,9 C
13.03.2013 19:16 -4,1 C 62 % 1007,3 hPa 0,0 l/m 0,0 km/h (0 Bft) S-SO 157 -10,3 C -4,1 C
13.03.2013 19:21 -4,1 C 62 % 1007,5 hPa 0,0 l/m 0,0 km/h (0 Bft) S-SO 157 -10,3 C -4,1 C
13.03.2013 19:26 -4,2 C 63 % 1007,4 hPa 0,0 l/m 0,0 km/h (0 Bft) S 180 -10,2 C -4,2 C
13.03.2013 19:31 -4,4 C 63 % 1007,4 hPa 0,0 l/m 0,0 km/h (0 Bft) S 180 -10,4 C -4,4 C
13.03.2013 19:36 -4,5 C 63 % 1007,7 hPa 0,0 l/m 1,8 km/h (1 Bft) S 180 -10,5 C -4,5 C
13.03.2013 19:41 -4,6 C 63 % 1007,7 hPa 0,0 l/m 1,8 km/h (1 Bft) S 180 -10,5 C -4,6 C
13.03.2013 19:46 -4,7 C 64 % 1007,5 hPa 0,0 l/m 3,2 km/h (1 Bft) S 180 -10,4 C -4,7 C
13.03.2013 19:51 -4,8 C 64 % 1007,4 hPa 0,0 l/m 3,6 km/h (1 Bft) SW 225 -10,5 C -4,8 C
13.03.2013 19:56 -4,7 C 65 % 1007,8 hPa 0,0 l/m 2,2 km/h (1 Bft) SW 225 -10,2 C -4,7 C
13.03.2013 20:01 -4,7 C 66 % 1007,7 hPa 0,0 l/m 2,2 km/h (1 Bft) SW 225 -10,1 C -4,7 C
13.03.2013 20:06 -4,8 C 66 % 1007,7 hPa 0,0 l/m 0,0 km/h (0 Bft) S-SW 202 -10,2 C -4,8 C
13.03.2013 20:11 -4,8 C 67 % 1007,7 hPa 0,0 l/m 2,2 km/h (1 Bft) S-SW 202 -10,0 C -4,8 C
13.03.2013 20:16 -4,9 C 67 % 1007,5 hPa 0,0 l/m 0,0 km/h (0 Bft) S-SW 202 -10,1 C -4,9 C
13.03.2013 20:21 -5,0 C 67 % 1007,8 hPa 0,0 l/m 2,2 km/h (1 Bft) S-SW 202 -10,2 C -5,0 C
13.03.2013 20:26 -5,1 C 67 % 1007,8 hPa 0,0 l/m 1,8 km/h (1 Bft) S-SW 202 -10,2 C -5,1 C
13.03.2013 20:31 -5,1 C 68 % 1007,7 hPa 0,0 l/m 1,4 km/h (1 Bft) S-SW 202 -10,1 C -5,1 C
13.03.2013 20:36 -5,2 C 68 % 1007,7 hPa 0,0 l/m 0,0 km/h (0 Bft) S-SW 202 -10,2 C -5,2 C
13.03.2013 20:41 -5,3 C 68 % 1007,8 hPa 0,0 l/m 1,4 km/h (1 Bft) S-SW 202 -10,3 C -5,3 C
13.03.2013 20:46 -5,4 C 69 % 1007,8 hPa 0,0 l/m 0,0 km/h (0 Bft) S 180 -10,2 C -5,4 C
13.03.2013 20:51 -5,5 C 69 % 1007,9 hPa 0,0 l/m 0,0 km/h (0 Bft) S 180 -10,3 C -5,5 C
13.03.2013 20:56 -5,6 C 70 % 1007,8 hPa 0,0 l/m 1,4 km/h (1 Bft) S 180 -10,2 C -5,6 C
13.03.2013 21:01 -5,6 C 70 % 1007,9 hPa 0,0 l/m 0,0 km/h (0 Bft) SO 135 -10,2 C -5,6 C
13.03.2013 21:06 -5,7 C 70 % 1007,7 hPa 0,0 l/m 0,0 km/h (0 Bft) S-SO 157 -10,3 C -5,7 C
13.03.2013 21:11 -5,8 C 71 % 1007,8 hPa 0,0 l/m 0,0 km/h (0 Bft) S-SO 157 -10,2 C -5,8 C
13.03.2013 21:16 -5,9 C 72 % 1008,0 hPa 0,0 l/m 1,1 km/h (1 Bft) S-SO 157 -10,1 C -5,9 C
13.03.2013 21:21 -5,9 C 72 % 1008,0 hPa 0,0 l/m 0,0 km/h (0 Bft) S-SO 157 -10,1 C -5,9 C
13.03.2013 21:26 -6,0 C 72 % 1008,1 hPa 0,0 l/m 0,0 km/h (0 Bft) S-SO 157 -10,2 C -6,0 C
13.03.2013 21:31 -6,1 C 72 % 1008,1 hPa 0,0 l/m 0,0 km/h (0 Bft) S-SO 157 -10,3 C -6,1 C
13.03.2013 21:36 -6,1 C 73 % 1008,1 hPa 0,0 l/m 2,9 km/h (1 Bft) S-SO 157 -10,1 C -6,1 C
13.03.2013 21:41 -6,1 C 73 % 1008,1 hPa 0,0 l/m 3,6 km/h (1 Bft) S-SO 157 -10,1 C -6,1 C
13.03.2013 21:46 -6,2 C 73 % 1008,1 hPa 0,0 l/m 0,0 km/h (0 Bft) S-SO 157 -10,2 C -6,2 C
13.03.2013 21:51 -6,2 C 73 % 1008,0 hPa 0,0 l/m 0,0 km/h (0 Bft) S-SO 157 -10,2 C -6,2 C
13.03.2013 21:56 -6,4 C 73 % 1008,1 hPa 0,0 l/m 0,0 km/h (0 Bft) S-SO 157 -10,4 C -6,4 C
13.03.2013 22:01 -6,4 C 74 % 1008,1 hPa 0,0 l/m 1,1 km/h (1 Bft) S-SO 157 -10,2 C -6,4 C
13.03.2013 22:06 -6,5 C 74 % 1008,1 hPa 0,0 l/m 0,0 km/h (0 Bft) S-SO 157 -10,3 C -6,5 C
13.03.2013 22:11 -6,5 C 74 % 1008,0 hPa 0,0 l/m 0,0 km/h (0 Bft) S-SO 157 -10,3 C -6,5 C
13.03.2013 22:16 -6,6 C 74 % 1008,1 hPa 0,0 l/m 0,0 km/h (0 Bft) S-SO 157 -10,4 C -6,6 C
13.03.2013 22:21 -6,6 C 74 % 1008,1 hPa 0,0 l/m 0,0 km/h (0 Bft) S-SO 157 -10,4 C -6,6 C
13.03.2013 22:26 -6,7 C 74 % 1008,2 hPa 0,0 l/m 0,0 km/h (0 Bft) S-SO 157 -10,5 C -6,7 C
13.03.2013 22:31 -6,7 C 75 % 1008,1 hPa 0,0 l/m 0,0 km/h (0 Bft) S-SO 157 -10,4 C -6,7 C
13.03.2013 22:36 -6,7 C 75 % 1008,1 hPa 0,0 l/m 0,0 km/h (0 Bft) S-SO 157 -10,4 C -6,7 C
13.03.2013 22:41 -6,7 C 76 % 1008,1 hPa 0,0 l/m 0,0 km/h (0 Bft) S-SO 157 -10,2 C -6,7 C
13.03.2013 22:46 -6,9 C 76 % 1008,2 hPa 0,0 l/m 0,0 km/h (0 Bft) S-SO 157 -10,4 C -6,9 C
13.03.2013 22:51 -6,9 C 76 % 1008,1 hPa 0,0 l/m 0,0 km/h (0 Bft) S-SO 157 -10,4 C -6,9 C
13.03.2013 22:56 -6,9 C 76 % 1008,1 hPa 0,0 l/m 0,0 km/h (0 Bft) S 180 -10,4 C -6,9 C
13.03.2013 23:01 -6,9 C 76 % 1008,3 hPa 0,0 l/m 0,0 km/h (0 Bft) S-SO 157 -10,4 C -6,9 C
13.03.2013 23:06 -6,9 C 77 % 1008,2 hPa 0,0 l/m 2,2 km/h (1 Bft) S-SO 157 -10,2 C -6,9 C
13.03.2013 23:11 -6,9 C 78 % 1008,2 hPa 0,0 l/m 0,0 km/h (0 Bft) S-SO 157 -10,1 C -6,9 C
13.03.2013 23:16 -6,9 C 78 % 1008,1 hPa 0,0 l/m 0,0 km/h (0 Bft) S-SO 157 -10,1 C -6,9 C
13.03.2013 23:21 -6,9 C 78 % 1008,3 hPa 0,0 l/m 0,0 km/h (0 Bft) S-SO 157 -10,1 C -6,9 C
13.03.2013 23:26 -6,9 C 78 % 1008,4 hPa 0,0 l/m 0,0 km/h (0 Bft) S-SO 157 -10,1 C -6,9 C
13.03.2013 23:31 -7,0 C 78 % 1008,3 hPa 0,0 l/m 0,0 km/h (0 Bft) S-SO 157 -10,2 C -7,0 C
13.03.2013 23:36 -7,1 C 78 % 1008,2 hPa 0,0 l/m 0,0 km/h (0 Bft) S-SO 157 -10,3 C -7,1 C
13.03.2013 23:41 -7,1 C 78 % 1008,2 hPa 0,0 l/m 0,0 km/h (0 Bft) S-SO 157 -10,3 C -7,1 C
13.03.2013 23:46 -7,2 C 78 % 1008,1 hPa 0,0 l/m 0,0 km/h (0 Bft) S-SO 157 -10,4 C -7,2 C
13.03.2013 23:51 -7,2 C 78 % 1008,4 hPa 0,0 l/m 0,0 km/h (0 Bft) S-SO 157 -10,4 C -7,2 C
13.03.2013 23:56 -7,2 C 78 % 1008,2 hPa 0,0 l/m 1,8 km/h (1 Bft) S-SO 157 -10,4 C -7,2 C
_ Min-Zeit 06:16 16:06 04:56 - 00:01 - - 05:56 03:16
Minimum _ -9,9 C 48 % 1005,0 hPa - 0,0 km/h (0 Bft) - - -12,3 C -11,4 C
_ Max-Zeit 14:51 08:16 23:26 00:01 12:21 - - 13:41 14:51
Maximum _ 3,4 C 87 % 1008,4 hPa 0,0 l/m 8,6 km/h
W-SW (2 Bft)
- - -5,6 C 3,4 C
Durchschnitt _ -4,3 C 70 % 1006,3 hPa #0,0 l/m 1,2 km/h (1 Bft) W-SW - -9,1 C -4,4 C
(c) by David Heller